createdAt,value
2018-09-18T00:01:05.274Z,15.70
2018-09-18T00:03:33.753Z,15.70
2018-09-18T00:06:02.435Z,15.60
2018-09-18T00:08:30.854Z,15.60
2018-09-18T00:10:59.268Z,15.60
2018-09-18T00:13:27.740Z,15.60
2018-09-18T00:15:56.203Z,15.60
2018-09-18T00:18:24.856Z,15.50
2018-09-18T00:20:53.277Z,15.50
2018-09-18T00:23:22.655Z,15.40
2018-09-18T00:25:51.623Z,15.40
2018-09-18T00:28:20.387Z,15.30
2018-09-18T00:30:48.800Z,15.30
2018-09-18T00:33:17.165Z,15.30
2018-09-18T00:35:45.559Z,15.20
2018-09-18T00:38:13.987Z,15.20
2018-09-18T00:40:42.628Z,15.20
2018-09-18T00:43:12.883Z,15.10
2018-09-18T00:45:42.752Z,15.10
2018-09-18T00:48:11.137Z,15.00
2018-09-18T00:55:34.584Z,14.90
2018-09-18T00:58:03.675Z,14.80
2018-09-18T01:00:32.125Z,14.80
2018-09-18T01:03:00.534Z,14.70
2018-09-18T01:05:29.084Z,14.70
2018-09-18T01:07:59.587Z,14.70
2018-09-18T01:10:27.992Z,14.70
2018-09-18T01:12:56.345Z,14.70
2018-09-18T01:15:24.745Z,14.70
2018-09-18T01:17:53.714Z,14.60
2018-09-18T01:20:22.089Z,14.70
2018-09-18T01:22:50.498Z,14.70
2018-09-18T01:25:19.612Z,14.60
2018-09-18T01:27:48.036Z,14.50
2018-09-18T01:30:16.420Z,14.50
2018-09-18T01:32:44.784Z,14.50
2018-09-18T01:35:13.208Z,14.50
2018-09-18T01:37:41.677Z,14.50
2018-09-18T01:40:10.081Z,14.60
2018-09-18T01:42:38.463Z,14.60
2018-09-18T01:45:06.979Z,14.60
2018-09-18T01:47:36.329Z,14.60
2018-09-18T01:50:05.604Z,14.50
2018-09-18T01:52:34.339Z,14.40
2018-09-18T01:55:02.845Z,14.30
2018-09-18T01:57:31.481Z,14.30
2018-09-18T01:59:59.818Z,14.20
2018-09-18T02:02:28.197Z,14.20
2018-09-18T02:04:56.570Z,14.10
2018-09-18T02:07:25.170Z,14.00
2018-09-18T02:09:54.234Z,14.00
2018-09-18T02:12:22.583Z,13.90
2018-09-18T02:14:50.958Z,13.90
2018-09-18T02:17:19.331Z,13.90
2018-09-18T02:19:47.789Z,13.80
2018-09-18T02:22:16.498Z,13.80
2018-09-18T02:24:44.917Z,13.70
2018-09-18T02:27:14.216Z,13.70
2018-09-18T02:29:43.584Z,13.70
2018-09-18T02:32:11.996Z,13.60
2018-09-18T02:34:40.389Z,13.70
2018-09-18T02:37:08.828Z,13.70
2018-09-18T02:39:37.308Z,13.70
2018-09-18T02:42:05.745Z,13.70
2018-09-18T02:44:35.967Z,13.70
2018-09-18T02:47:04.400Z,13.70
2018-09-18T02:49:32.768Z,13.80
2018-09-18T02:52:01.166Z,13.80
2018-09-18T02:54:29.513Z,13.80
2018-09-18T02:56:58.036Z,13.80
2018-09-18T02:59:26.391Z,13.80
2018-09-18T03:01:55.580Z,13.90
2018-09-18T03:04:24.017Z,13.90
2018-09-18T03:06:52.473Z,13.90
2018-09-18T03:09:20.878Z,13.90
2018-09-18T03:11:50.789Z,13.80
2018-09-18T03:14:20.114Z,13.80
2018-09-18T03:16:49.432Z,13.70
2018-09-18T03:19:17.805Z,13.70
2018-09-18T03:21:46.723Z,13.70
2018-09-18T03:24:16.434Z,13.70
2018-09-18T03:26:44.891Z,13.60
2018-09-18T03:29:13.556Z,13.60
2018-09-18T03:31:41.956Z,13.60
2018-09-18T03:34:10.309Z,13.50
2018-09-18T03:36:38.748Z,13.50
2018-09-18T03:39:07.962Z,13.40
2018-09-18T03:41:43.024Z,13.40
2018-09-18T03:44:11.397Z,13.30
2018-09-18T03:46:39.792Z,13.30
2018-09-18T03:49:08.270Z,13.20
2018-09-18T03:51:36.732Z,13.10
2018-09-18T03:54:05.129Z,13.10
2018-09-18T03:56:34.655Z,13.00
2018-09-18T03:59:03.132Z,13.00
2018-09-18T04:01:31.525Z,12.90
2018-09-18T04:03:59.874Z,12.90
2018-09-18T04:06:28.266Z,12.90
2018-09-18T04:08:56.708Z,12.80
2018-09-18T04:11:25.737Z,12.80
2018-09-18T04:13:55.089Z,12.80
2018-09-18T04:16:23.723Z,12.70
2018-09-18T04:18:52.101Z,12.80
2018-09-18T04:21:20.528Z,12.70
2018-09-18T04:23:48.896Z,12.70
2018-09-18T04:26:17.275Z,12.70
2018-09-18T04:28:45.671Z,12.70
2018-09-18T04:31:14.083Z,12.70
2018-09-18T04:33:42.491Z,12.70
2018-09-18T04:36:10.876Z,12.70
2018-09-18T04:38:39.345Z,12.60
2018-09-18T04:41:07.749Z,12.60
2018-09-18T04:43:36.422Z,12.60
2018-09-18T04:46:05.085Z,12.50
2018-09-18T04:48:34.915Z,12.50
2018-09-18T04:51:03.995Z,12.50
2018-09-18T04:53:32.365Z,12.50
2018-09-18T04:56:01.255Z,12.60
2018-09-18T04:58:29.757Z,12.60
2018-09-18T05:00:58.451Z,12.60
2018-09-18T05:03:26.849Z,12.50
2018-09-18T05:05:56.782Z,12.50
2018-09-18T05:08:25.176Z,12.50
2018-09-18T05:10:54.251Z,12.50
2018-09-18T05:13:22.922Z,12.60
2018-09-18T05:15:51.320Z,12.70
2018-09-18T05:18:19.755Z,12.80
2018-09-18T05:20:48.156Z,12.90
2018-09-18T05:23:16.582Z,13.00
2018-09-18T05:25:45.785Z,13.00
2018-09-18T05:28:14.947Z,13.00
2018-09-18T05:30:43.345Z,13.10
2018-09-18T05:33:11.765Z,13.10
2018-09-18T05:35:40.151Z,13.10
2018-09-18T05:38:08.616Z,13.00
2018-09-18T05:40:37.041Z,13.00
2018-09-18T05:43:05.445Z,13.00
2018-09-18T05:45:33.810Z,13.00
2018-09-18T05:48:02.220Z,12.90
2018-09-18T05:50:30.602Z,12.90
2018-09-18T05:52:58.980Z,12.90
2018-09-18T05:55:27.435Z,12.90
2018-09-18T05:57:55.856Z,13.00
2018-09-18T06:00:24.394Z,13.10
2018-09-18T06:02:52.824Z,13.10
2018-09-18T06:05:21.488Z,13.20
2018-09-18T06:07:49.887Z,13.30
2018-09-18T06:10:18.352Z,13.30
2018-09-18T06:12:46.845Z,13.50
2018-09-18T06:15:15.235Z,13.60
2018-09-18T06:17:43.665Z,13.70
2018-09-18T06:20:12.113Z,13.90
2018-09-18T06:22:40.528Z,14.00
2018-09-18T06:25:09.024Z,14.20
2018-09-18T06:27:37.428Z,14.30
2018-09-18T06:30:06.029Z,14.40
2018-09-18T06:32:34.522Z,14.30
2018-09-18T06:35:03.011Z,14.30
2018-09-18T06:37:31.505Z,14.20
2018-09-18T06:39:59.917Z,14.20
2018-09-18T06:42:28.405Z,14.20
2018-09-18T06:44:56.801Z,14.30
2018-09-18T06:47:25.197Z,14.50
2018-09-18T06:49:53.622Z,14.70
2018-09-18T06:52:22.013Z,14.90
2018-09-18T06:54:50.444Z,15.00
2018-09-18T06:57:18.795Z,15.20
2018-09-18T06:59:47.200Z,15.40
2018-09-18T07:02:15.593Z,15.50
2018-09-18T07:04:43.982Z,15.60
2018-09-18T07:07:12.422Z,15.70
2018-09-18T07:09:40.865Z,15.90
2018-09-18T07:12:09.285Z,16.00
2018-09-18T07:14:39.296Z,16.10
2018-09-18T07:17:07.762Z,16.30
2018-09-18T07:19:36.256Z,16.40
2018-09-18T07:22:04.765Z,16.50
2018-09-18T07:24:33.129Z,16.60
2018-09-18T07:27:02.179Z,16.60
2018-09-18T07:29:30.859Z,16.80
2018-09-18T07:31:59.254Z,16.90
2018-09-18T07:34:27.672Z,17.00
2018-09-18T07:36:56.138Z,17.10
2018-09-18T07:39:24.526Z,17.20
2018-09-18T07:41:52.912Z,17.30
2018-09-18T07:44:21.309Z,17.40
2018-09-18T07:46:49.707Z,17.50
2018-09-18T07:49:18.138Z,17.60
2018-09-18T07:51:46.519Z,17.70
2018-09-18T07:54:14.989Z,17.80
2018-09-18T07:56:43.448Z,18.00
2018-09-18T07:59:11.829Z,18.10
2018-09-18T08:01:40.198Z,18.30
2018-09-18T08:04:08.611Z,18.40
2018-09-18T08:06:37.070Z,18.60
2018-09-18T08:09:08.679Z,18.70
2018-09-18T08:11:37.124Z,18.90
2018-09-18T08:14:05.589Z,19.10
2018-09-18T08:16:33.987Z,19.20
2018-09-18T08:19:02.621Z,19.40
2018-09-18T08:21:30.846Z,19.50
2018-09-18T08:23:59.224Z,19.70
2018-09-18T08:26:27.661Z,19.80
2018-09-18T08:28:56.023Z,20.00
2018-09-18T08:31:24.436Z,20.10
2018-09-18T08:33:53.593Z,20.30
2018-09-18T08:36:22.024Z,20.40
2018-09-18T08:38:50.478Z,20.60
2018-09-18T08:41:18.918Z,20.70
2018-09-18T08:43:47.316Z,20.90
2018-09-18T08:46:15.776Z,21.00
2018-09-18T08:48:49.392Z,21.20
2018-09-18T08:51:17.836Z,21.40
2018-09-18T08:53:46.241Z,21.60
2018-09-18T08:56:14.609Z,21.70
2018-09-18T08:58:42.966Z,21.90
2018-09-18T09:01:11.684Z,22.00
2018-09-18T09:03:40.065Z,22.20
2018-09-18T09:06:08.691Z,22.30
2018-09-18T09:08:37.028Z,22.40
2018-09-18T09:11:05.445Z,22.50
2018-09-18T09:13:33.951Z,22.60
2018-09-18T09:16:08.985Z,22.70
2018-09-18T09:18:37.571Z,22.90
2018-09-18T09:21:05.965Z,23.10
2018-09-18T09:23:34.316Z,23.20
2018-09-18T09:26:02.798Z,23.40
2018-09-18T09:28:31.219Z,23.60
2018-09-18T09:31:00.390Z,23.80
2018-09-18T09:33:29.065Z,24.00
2018-09-18T09:35:57.456Z,24.10
2018-09-18T09:38:25.906Z,24.20
2018-09-18T09:40:54.285Z,24.40
2018-09-18T09:43:22.701Z,24.50
2018-09-18T09:45:51.924Z,24.70
2018-09-18T09:48:20.462Z,24.80
2018-09-18T09:50:48.890Z,25.00
2018-09-18T09:53:17.332Z,25.20
2018-09-18T09:55:45.726Z,25.30
2018-09-18T09:58:14.213Z,25.40
2018-09-18T10:03:31.111Z,25.70
2018-09-18T10:05:59.510Z,25.70
2018-09-18T10:08:27.957Z,25.70
2018-09-18T10:10:56.844Z,25.80
2018-09-18T10:13:25.776Z,25.90
2018-09-18T10:15:54.367Z,26.00
2018-09-18T10:18:23.649Z,26.00
2018-09-18T10:20:52.116Z,26.10
2018-09-18T10:23:20.565Z,26.20
2018-09-18T10:25:49.719Z,26.20
2018-09-18T10:28:18.720Z,26.40
2018-09-18T10:30:47.149Z,26.50
2018-09-18T10:33:16.780Z,26.60
2018-09-18T10:35:46.182Z,26.70
2018-09-18T10:38:15.698Z,27.00
2018-09-18T10:40:44.793Z,27.20
2018-09-18T10:43:13.129Z,27.50
2018-09-18T10:45:41.637Z,27.60
2018-09-18T10:48:10.055Z,27.60
2018-09-18T10:50:38.543Z,27.50
2018-09-18T10:53:06.990Z,27.60
2018-09-18T10:55:36.704Z,27.60
2018-09-18T10:58:05.792Z,27.60
2018-09-18T11:00:34.192Z,27.90
2018-09-18T11:03:02.638Z,28.00
2018-09-18T11:05:31.707Z,28.00
2018-09-18T11:08:00.128Z,28.20
2018-09-18T11:10:28.588Z,28.50
2018-09-18T11:12:56.950Z,28.60
2018-09-18T11:15:26.235Z,28.80
2018-09-18T11:17:54.591Z,29.00
2018-09-18T11:20:22.958Z,29.00
2018-09-18T11:22:51.385Z,29.10
2018-09-18T11:25:20.330Z,29.30
2018-09-18T11:27:48.772Z,29.60
2018-09-18T11:30:18.209Z,30.30
2018-09-18T11:32:46.667Z,33.00
2018-09-18T11:35:14.980Z,35.50
2018-09-18T11:37:43.425Z,37.80
2018-09-18T11:40:11.855Z,39.30
2018-09-18T11:42:40.444Z,40.90
2018-09-18T11:45:08.932Z,42.10
2018-09-18T11:47:37.356Z,42.60
2018-09-18T11:50:05.858Z,43.00
2018-09-18T11:52:34.220Z,43.20
2018-09-18T11:55:02.649Z,42.90
2018-09-18T11:57:31.693Z,43.10
2018-09-18T12:00:00.096Z,43.30
2018-09-18T12:02:28.512Z,43.20
2018-09-18T12:04:56.888Z,43.60
2018-09-18T12:07:25.248Z,43.60
2018-09-18T12:09:53.637Z,43.80
2018-09-18T12:12:22.095Z,44.10
2018-09-18T12:14:50.790Z,43.50
2018-09-18T12:17:19.457Z,43.40
2018-09-18T12:19:47.822Z,43.30
2018-09-18T12:22:16.244Z,43.80
2018-09-18T12:24:44.843Z,44.70
2018-09-18T12:27:13.347Z,45.40
2018-09-18T12:29:42.048Z,45.80
2018-09-18T12:32:10.561Z,45.60
2018-09-18T12:34:39.288Z,45.40
2018-09-18T12:37:07.773Z,45.20
2018-09-18T12:39:36.198Z,45.00
2018-09-18T12:42:04.774Z,44.70
2018-09-18T12:44:33.013Z,44.90
2018-09-18T12:47:02.102Z,45.20
2018-09-18T12:49:31.193Z,45.10
2018-09-18T12:51:59.820Z,43.00
2018-09-18T12:54:28.677Z,41.10
2018-09-18T12:56:57.377Z,38.90
2018-09-18T12:59:25.911Z,37.50
2018-09-18T13:01:54.320Z,36.40
2018-09-18T13:04:22.804Z,36.60
2018-09-18T13:06:51.921Z,37.50
2018-09-18T13:09:20.300Z,38.50
2018-09-18T13:11:48.697Z,39.20
2018-09-18T13:14:17.470Z,39.20
2018-09-18T13:16:45.760Z,38.10
2018-09-18T13:19:14.200Z,36.70
2018-09-18T13:21:43.643Z,35.60
2018-09-18T13:24:12.072Z,34.70
2018-09-18T13:26:40.508Z,34.00
2018-09-18T13:29:09.256Z,33.40
2018-09-18T13:31:37.699Z,33.10
2018-09-18T13:34:06.053Z,32.80
2018-09-18T13:36:34.581Z,32.80
2018-09-18T13:39:03.809Z,32.60
2018-09-18T13:41:32.636Z,32.50
2018-09-18T13:44:01.164Z,32.60
2018-09-18T13:46:29.789Z,32.80
2018-09-18T13:48:58.290Z,32.80
2018-09-18T13:51:26.880Z,32.60
2018-09-18T13:53:55.273Z,32.20
2018-09-18T13:56:24.140Z,32.00
2018-09-18T14:03:54.384Z,32.00
2018-09-18T14:06:23.517Z,33.10
2018-09-18T14:08:52.096Z,33.30
2018-09-18T14:11:20.524Z,33.50
2018-09-18T14:13:49.405Z,33.00
2018-09-18T14:16:18.551Z,32.50
2018-09-18T14:18:47.121Z,32.70
2018-09-18T14:21:15.665Z,33.00
2018-09-18T14:23:44.112Z,32.70
2018-09-18T14:26:12.591Z,32.40
2018-09-18T14:28:41.424Z,32.20
2018-09-18T14:31:09.949Z,32.10
2018-09-18T14:33:38.449Z,32.10
2018-09-18T14:36:06.948Z,32.30
2018-09-18T14:38:35.404Z,32.60
2018-09-18T14:41:03.791Z,32.60
2018-09-18T14:43:32.442Z,32.40
2018-09-18T14:46:00.913Z,32.30
2018-09-18T14:48:30.065Z,32.20
2018-09-18T14:50:58.593Z,32.20
2018-09-18T14:53:27.026Z,32.20
2018-09-18T14:55:55.771Z,32.30
2018-09-18T14:58:24.183Z,32.40
2018-09-18T15:00:52.618Z,32.20
2018-09-18T15:03:21.321Z,31.90
2018-09-18T15:05:49.792Z,31.50
2018-09-18T15:08:18.340Z,31.30
2018-09-18T15:10:47.682Z,31.20
2018-09-18T15:13:16.073Z,31.70
2018-09-18T15:15:44.504Z,32.30
2018-09-18T15:18:12.913Z,32.90
2018-09-18T15:20:41.277Z,34.00
2018-09-18T15:23:09.678Z,34.60
2018-09-18T15:25:38.052Z,35.00
2018-09-18T15:28:06.545Z,35.20
2018-09-18T15:30:35.059Z,35.00
2018-09-18T15:33:03.464Z,34.70
2018-09-18T15:35:31.977Z,34.10
2018-09-18T15:38:01.133Z,33.70
2018-09-18T15:40:29.827Z,33.40
2018-09-18T15:42:58.733Z,33.10
2018-09-18T15:45:27.410Z,32.70
2018-09-18T15:47:55.878Z,32.30
2018-09-18T15:50:24.701Z,32.00
2018-09-18T15:52:53.214Z,31.80
2018-09-18T15:55:21.710Z,31.60
2018-09-18T15:57:50.087Z,31.50
2018-09-18T16:00:18.980Z,31.30
2018-09-18T16:02:47.655Z,31.30
2018-09-18T16:05:16.134Z,31.30
2018-09-18T16:07:45.905Z,31.50
2018-09-18T16:10:14.412Z,31.80
2018-09-18T16:12:43.136Z,31.90
2018-09-18T16:15:11.677Z,31.60
2018-09-18T16:17:39.965Z,31.40
2018-09-18T16:20:08.402Z,31.30
2018-09-18T16:22:36.881Z,31.10
2018-09-18T16:25:05.196Z,30.90
2018-09-18T16:27:33.853Z,30.60
2018-09-18T16:30:02.385Z,30.40
2018-09-18T16:32:30.802Z,30.20
2018-09-18T16:34:59.270Z,30.00
2018-09-18T16:37:27.692Z,30.00
2018-09-18T16:39:56.103Z,30.00
2018-09-18T16:42:24.781Z,29.80
2018-09-18T16:44:53.706Z,29.60
2018-09-18T16:47:22.300Z,29.30
2018-09-18T16:49:50.714Z,29.10
2018-09-18T16:52:19.193Z,28.90
2018-09-18T16:54:47.696Z,28.60
2018-09-18T16:57:16.089Z,28.40
2018-09-18T16:59:44.466Z,28.30
2018-09-18T17:02:13.062Z,28.20
2018-09-18T17:04:41.693Z,28.10
2018-09-18T17:07:11.020Z,28.00
2018-09-18T17:09:39.466Z,27.90
2018-09-18T17:12:08.448Z,27.80
2018-09-18T17:14:36.918Z,27.70
2018-09-18T17:17:05.521Z,27.70
2018-09-18T17:19:41.676Z,27.60
2018-09-18T17:22:10.132Z,27.50
2018-09-18T17:24:38.591Z,27.40
2018-09-18T17:27:07.313Z,27.40
2018-09-18T17:29:35.780Z,27.40
2018-09-18T17:32:04.229Z,27.30
2018-09-18T17:34:32.900Z,27.30
2018-09-18T17:37:01.351Z,27.30
2018-09-18T17:39:29.825Z,27.20
2018-09-18T17:41:58.341Z,27.10
2018-09-18T17:44:26.930Z,27.00
2018-09-18T17:46:55.454Z,26.90
2018-09-18T17:49:24.756Z,26.90
2018-09-18T17:51:54.639Z,26.90
2018-09-18T17:54:23.927Z,26.80
2018-09-18T17:56:52.946Z,26.70
2018-09-18T17:59:21.632Z,26.70
2018-09-18T18:01:49.996Z,26.60
2018-09-18T18:04:18.498Z,26.40
2018-09-18T18:06:48.126Z,26.30
2018-09-18T18:09:17.501Z,26.20
2018-09-18T18:11:46.174Z,26.10
2018-09-18T18:14:14.687Z,26.00
2018-09-18T18:16:43.146Z,25.90
2018-09-18T18:19:11.625Z,25.80
2018-09-18T18:21:40.058Z,25.70
2018-09-18T18:24:09.369Z,25.60
2018-09-18T18:26:39.769Z,25.50
2018-09-18T18:29:08.330Z,25.40
2018-09-18T18:31:36.748Z,25.30
2018-09-18T18:34:05.236Z,25.20
2018-09-18T18:36:34.036Z,25.10
2018-09-18T18:39:02.531Z,24.90
2018-09-18T18:41:30.973Z,24.90
2018-09-18T18:43:59.479Z,24.80
2018-09-18T18:46:27.997Z,24.80
2018-09-18T18:48:56.583Z,24.80
2018-09-18T18:51:25.059Z,24.80
2018-09-18T18:53:53.597Z,24.80
2018-09-18T18:56:22.213Z,24.80
2018-09-18T18:58:50.696Z,24.70
2018-09-18T19:01:19.277Z,24.70
2018-09-18T19:03:47.769Z,24.60
2018-09-18T19:06:16.260Z,24.60
2018-09-18T19:08:44.900Z,24.50
2018-09-18T19:11:13.432Z,24.40
2018-09-18T19:13:41.999Z,24.30
2018-09-18T19:16:10.950Z,24.30
2018-09-18T19:35:57.630Z,23.90
2018-09-18T19:38:26.161Z,23.80
2018-09-18T19:40:54.637Z,23.80
2018-09-18T19:43:23.327Z,23.80
2018-09-18T19:45:51.860Z,23.80
2018-09-18T19:48:20.535Z,23.80
2018-09-18T19:50:49.002Z,23.70
2018-09-18T19:53:17.752Z,23.70
2018-09-18T19:55:46.434Z,23.60
2018-09-18T19:58:14.969Z,23.60
2018-09-18T20:00:43.878Z,23.50
2018-09-18T20:03:13.948Z,23.50
2018-09-18T20:05:42.434Z,23.50
2018-09-18T20:08:10.947Z,23.50
2018-09-18T20:10:39.744Z,23.40
2018-09-18T20:13:08.388Z,23.40
2018-09-18T20:15:37.012Z,23.30
2018-09-18T20:18:06.334Z,23.30
2018-09-18T20:20:35.125Z,23.30
2018-09-18T20:23:03.677Z,23.20
2018-09-18T20:25:32.312Z,23.10
2018-09-18T20:28:00.751Z,23.10
2018-09-18T20:30:29.653Z,23.10
2018-09-18T20:32:58.123Z,23.10
2018-09-18T20:35:26.556Z,23.00
2018-09-18T20:37:55.340Z,23.00
2018-09-18T20:40:24.494Z,22.90
2018-09-18T20:42:53.231Z,22.90
2018-09-18T20:45:21.730Z,22.80
2018-09-18T20:47:56.577Z,22.80
2018-09-18T21:07:48.983Z,22.30
2018-09-18T21:10:18.100Z,22.20
2018-09-18T21:12:46.643Z,22.20
2018-09-18T21:15:15.188Z,22.20
2018-09-18T21:17:44.176Z,22.20
2018-09-18T21:20:13.014Z,22.20
2018-09-18T21:22:41.395Z,22.20
2018-09-18T21:25:13.703Z,22.20
2018-09-18T21:27:43.572Z,22.10
2018-09-18T21:30:12.273Z,22.00
2018-09-18T21:32:40.705Z,22.00
2018-09-18T21:35:09.556Z,22.00
2018-09-18T21:37:38.122Z,22.00
2018-09-18T21:40:06.627Z,22.00
2018-09-18T21:42:35.125Z,22.00
2018-09-18T21:45:05.414Z,22.00
2018-09-18T21:47:34.168Z,22.00
2018-09-18T21:52:42.440Z,22.00
2018-09-18T21:55:11.268Z,22.00
2018-09-18T21:57:42.962Z,21.90
2018-09-18T22:00:12.423Z,21.90
2018-09-18T22:02:40.814Z,21.90
2018-09-18T22:05:09.261Z,21.90
2018-09-18T22:07:38.777Z,21.80
2018-09-18T22:10:07.313Z,21.80
2018-09-18T22:12:36.252Z,21.80
2018-09-18T22:15:06.133Z,21.70
2018-09-18T22:17:37.480Z,21.70
2018-09-18T22:20:07.783Z,21.60
2018-09-18T22:22:37.006Z,21.60
2018-09-18T22:25:05.774Z,21.60
2018-09-18T22:27:34.914Z,21.60
2018-09-18T22:30:03.468Z,21.60
2018-09-18T22:32:31.903Z,21.50
2018-09-18T22:35:00.946Z,21.50
2018-09-18T22:37:29.455Z,21.50
2018-09-18T22:39:57.846Z,21.50
2018-09-18T22:42:28.349Z,21.40
2018-09-18T22:44:59.777Z,21.40
2018-09-18T22:47:28.466Z,21.30
2018-09-18T22:49:56.932Z,21.20
2018-09-18T22:52:25.420Z,21.20
2018-09-18T22:54:53.802Z,21.10
2018-09-18T22:57:22.812Z,21.10
2018-09-18T22:59:51.818Z,21.00
2018-09-18T23:02:21.125Z,21.00
2018-09-18T23:04:49.535Z,20.90
2018-09-18T23:07:18.729Z,20.80
2018-09-18T23:09:47.954Z,20.70
2018-09-18T23:12:16.437Z,20.70
2018-09-18T23:14:44.931Z,20.70
2018-09-18T23:17:13.520Z,20.60
2018-09-18T23:19:41.933Z,20.60
2018-09-18T23:22:10.390Z,20.60
2018-09-18T23:24:38.785Z,20.50
2018-09-18T23:27:07.187Z,20.50
2018-09-18T23:29:36.229Z,20.50
2018-09-18T23:32:04.888Z,20.50
2018-09-18T23:34:33.432Z,20.50
2018-09-18T23:37:01.933Z,20.50
2018-09-18T23:39:30.334Z,20.50
2018-09-18T23:41:58.821Z,20.50
2018-09-18T23:44:27.743Z,20.50
2018-09-18T23:46:56.168Z,20.40
2018-09-18T23:49:24.693Z,20.40
2018-09-18T23:51:53.164Z,20.30
2018-09-18T23:54:21.592Z,20.30
2018-09-18T23:56:50.914Z,20.30
2018-09-18T23:59:19.335Z,20.20
